sensor_id;sensor_type;location;lat;lon;timestamp;temperature;humidity
10089;DHT22;51898;49.864;8.550;2022-12-13T00:00:08;-4.80;99.90
10089;DHT22;51898;49.864;8.550;2022-12-13T00:03:14;-4.90;99.90
10089;DHT22;51898;49.864;8.550;2022-12-13T00:06:16;-4.90;99.90
10089;DHT22;51898;49.864;8.550;2022-12-13T00:09:18;-4.90;99.90
10089;DHT22;51898;49.864;8.550;2022-12-13T00:12:20;-4.90;99.90
10089;DHT22;51898;49.864;8.550;2022-12-13T00:15:21;-4.90;99.90
10089;DHT22;51898;49.864;8.550;2022-12-13T00:18:23;-5.00;99.90
10089;DHT22;51898;49.864;8.550;2022-12-13T00:21:28;-4.90;99.90
10089;DHT22;51898;49.864;8.550;2022-12-13T00:24:30;-5.00;99.90
10089;DHT22;51898;49.864;8.550;2022-12-13T00:27:31;-5.00;99.90
10089;DHT22;51898;49.864;8.550;2022-12-13T00:30:33;-5.00;99.90
10089;DHT22;51898;49.864;8.550;2022-12-13T00:33:37;-5.00;99.90
10089;DHT22;51898;49.864;8.550;2022-12-13T00:36:40;-5.00;99.90
10089;DHT22;51898;49.864;8.550;2022-12-13T00:39:41;-5.00;99.90
10089;DHT22;51898;49.864;8.550;2022-12-13T00:42:43;-5.10;99.90
10089;DHT22;51898;49.864;8.550;2022-12-13T00:45:45;-5.10;99.90
10089;DHT22;51898;49.864;8.550;2022-12-13T00:48:52;-5.00;99.90
10089;DHT22;51898;49.864;8.550;2022-12-13T00:51:54;-5.10;99.90
10089;DHT22;51898;49.864;8.550;2022-12-13T00:54:56;-5.10;99.90
10089;DHT22;51898;49.864;8.550;2022-12-13T00:57:57;-5.10;99.90
10089;DHT22;51898;49.864;8.550;2022-12-13T01:01:04;-5.20;99.90
10089;DHT22;51898;49.864;8.550;2022-12-13T01:04:06;-5.30;99.90
10089;DHT22;51898;49.864;8.550;2022-12-13T01:07:08;-5.30;99.90
10089;DHT22;51898;49.864;8.550;2022-12-13T01:10:11;-5.30;99.90
10089;DHT22;51898;49.864;8.550;2022-12-13T01:13:13;-5.40;99.90
10089;DHT22;51898;49.864;8.550;2022-12-13T01:16:15;-5.40;99.90
10089;DHT22;51898;49.864;8.550;2022-12-13T01:19:16;-5.40;99.90
10089;DHT22;51898;49.864;8.550;2022-12-13T01:22:18;-5.40;99.90
10089;DHT22;51898;49.864;8.550;2022-12-13T01:25:20;-5.40;99.90
10089;DHT22;51898;49.864;8.550;2022-12-13T01:28:22;-5.40;99.90
10089;DHT22;51898;49.864;8.550;2022-12-13T01:31:24;-5.40;99.90
10089;DHT22;51898;49.864;8.550;2022-12-13T01:34:26;-5.40;99.90
10089;DHT22;51898;49.864;8.550;2022-12-13T01:37:28;-5.30;99.90
10089;DHT22;51898;49.864;8.550;2022-12-13T01:40:29;-5.30;99.90
10089;DHT22;51898;49.864;8.550;2022-12-13T01:46:42;-5.30;99.90
10089;DHT22;51898;49.864;8.550;2022-12-13T01:49:44;-5.30;99.90
10089;DHT22;51898;49.864;8.550;2022-12-13T01:52:46;-5.40;99.90
10089;DHT22;51898;49.864;8.550;2022-12-13T01:55:52;-5.40;99.90
10089;DHT22;51898;49.864;8.550;2022-12-13T01:58:55;-5.40;99.90
10089;DHT22;51898;49.864;8.550;2022-12-13T02:01:57;-5.40;99.90
10089;DHT22;51898;49.864;8.550;2022-12-13T02:05:03;-5.30;99.90
10089;DHT22;51898;49.864;8.550;2022-12-13T02:08:09;-5.40;99.90
10089;DHT22;51898;49.864;8.550;2022-12-13T02:11:12;-5.30;99.90
10089;DHT22;51898;49.864;8.550;2022-12-13T02:14:14;-5.40;99.90
10089;DHT22;51898;49.864;8.550;2022-12-13T02:17:26;-5.40;99.90
10089;DHT22;51898;49.864;8.550;2022-12-13T02:31:09;-5.40;99.90
10089;DHT22;51898;49.864;8.550;2022-12-13T02:34:20;-5.40;99.90
10089;DHT22;51898;49.864;8.550;2022-12-13T02:37:29;-5.40;99.90
10089;DHT22;51898;49.864;8.550;2022-12-13T02:40:34;-5.40;99.90
10089;DHT22;51898;49.864;8.550;2022-12-13T02:44:05;-5.40;99.90
10089;DHT22;51898;49.864;8.550;2022-12-13T02:47:24;-5.50;99.90
10089;DHT22;51898;49.864;8.550;2022-12-13T02:50:27;-5.40;99.90
10089;DHT22;51898;49.864;8.550;2022-12-13T02:53:31;-5.50;99.90
10089;DHT22;51898;49.864;8.550;2022-12-13T02:56:34;-5.50;99.90
10089;DHT22;51898;49.864;8.550;2022-12-13T02:59:37;-5.50;99.90
10089;DHT22;51898;49.864;8.550;2022-12-13T03:06:52;-5.50;99.90
10089;DHT22;51898;49.864;8.550;2022-12-13T03:10:04;-5.50;99.90
10089;DHT22;51898;49.864;8.550;2022-12-13T03:13:18;-5.60;99.90
10089;DHT22;51898;49.864;8.550;2022-12-13T03:16:48;-5.70;99.90
10089;DHT22;51898;49.864;8.550;2022-12-13T03:19:53;-5.70;99.90
10089;DHT22;51898;49.864;8.550;2022-12-13T03:22:57;-5.70;99.90
10089;DHT22;51898;49.864;8.550;2022-12-13T03:26:02;-5.70;99.90
10089;DHT22;51898;49.864;8.550;2022-12-13T03:29:05;-5.80;99.90
10089;DHT22;51898;49.864;8.550;2022-12-13T03:32:07;-5.80;99.90
10089;DHT22;51898;49.864;8.550;2022-12-13T03:35:09;-5.80;99.90
10089;DHT22;51898;49.864;8.550;2022-12-13T03:38:23;-5.80;99.90
10089;DHT22;51898;49.864;8.550;2022-12-13T03:41:27;-5.90;99.90
10089;DHT22;51898;49.864;8.550;2022-12-13T03:44:32;-5.90;99.90
10089;DHT22;51898;49.864;8.550;2022-12-13T03:47:33;-5.90;99.90
10089;DHT22;51898;49.864;8.550;2022-12-13T03:50:35;-5.90;99.90
10089;DHT22;51898;49.864;8.550;2022-12-13T03:53:37;-5.90;99.90
10089;DHT22;51898;49.864;8.550;2022-12-13T03:56:38;-5.90;99.90
10089;DHT22;51898;49.864;8.550;2022-12-13T03:59:40;-5.90;99.90
10089;DHT22;51898;49.864;8.550;2022-12-13T04:02:42;-5.90;99.90
10089;DHT22;51898;49.864;8.550;2022-12-13T04:05:43;-5.90;99.90
10089;DHT22;51898;49.864;8.550;2022-12-13T04:08:45;-5.90;99.90
10089;DHT22;51898;49.864;8.550;2022-12-13T04:11:51;-6.00;99.90
10089;DHT22;51898;49.864;8.550;2022-12-13T04:15:12;-6.00;99.90
10089;DHT22;51898;49.864;8.550;2022-12-13T04:18:18;-6.00;99.90
10089;DHT22;51898;49.864;8.550;2022-12-13T04:21:19;-6.00;99.90
10089;DHT22;51898;49.864;8.550;2022-12-13T04:24:22;-6.10;99.90
10089;DHT22;51898;49.864;8.550;2022-12-13T04:27:32;-6.10;99.90
10089;DHT22;51898;49.864;8.550;2022-12-13T04:30:34;-6.10;99.90
10089;DHT22;51898;49.864;8.550;2022-12-13T04:33:36;-6.10;99.90
10089;DHT22;51898;49.864;8.550;2022-12-13T04:36:38;-6.10;99.90
10089;DHT22;51898;49.864;8.550;2022-12-13T04:39:39;-6.10;99.90
10089;DHT22;51898;49.864;8.550;2022-12-13T04:42:48;-6.10;99.90
10089;DHT22;51898;49.864;8.550;2022-12-13T04:45:54;-6.20;99.90
10089;DHT22;51898;49.864;8.550;2022-12-13T04:48:56;-6.20;99.90
10089;DHT22;51898;49.864;8.550;2022-12-13T04:51:58;-6.30;99.90
10089;DHT22;51898;49.864;8.550;2022-12-13T04:55:03;-6.30;99.90
10089;DHT22;51898;49.864;8.550;2022-12-13T04:58:04;-6.20;99.90
10089;DHT22;51898;49.864;8.550;2022-12-13T05:01:07;-6.20;99.90
10089;DHT22;51898;49.864;8.550;2022-12-13T05:04:09;-6.20;99.90
10089;DHT22;51898;49.864;8.550;2022-12-13T05:07:11;-6.10;99.90
10089;DHT22;51898;49.864;8.550;2022-12-13T05:10:12;-6.10;99.90
10089;DHT22;51898;49.864;8.550;2022-12-13T05:13:34;-6.20;99.90
10089;DHT22;51898;49.864;8.550;2022-12-13T05:16:36;-6.30;99.90
10089;DHT22;51898;49.864;8.550;2022-12-13T05:19:37;-6.30;99.90
10089;DHT22;51898;49.864;8.550;2022-12-13T05:22:39;-6.40;99.90
10089;DHT22;51898;49.864;8.550;2022-12-13T05:25:41;-6.40;99.90
10089;DHT22;51898;49.864;8.550;2022-12-13T05:28:42;-6.40;99.90
10089;DHT22;51898;49.864;8.550;2022-12-13T05:31:44;-6.40;99.90
10089;DHT22;51898;49.864;8.550;2022-12-13T05:34:45;-6.40;99.90
10089;DHT22;51898;49.864;8.550;2022-12-13T05:37:47;-6.30;99.90
10089;DHT22;51898;49.864;8.550;2022-12-13T05:40:55;-6.30;99.90
10089;DHT22;51898;49.864;8.550;2022-12-13T05:43:56;-6.40;99.90
10089;DHT22;51898;49.864;8.550;2022-12-13T05:46:58;-6.40;99.90
10089;DHT22;51898;49.864;8.550;2022-12-13T05:50:03;-6.40;99.90
10089;DHT22;51898;49.864;8.550;2022-12-13T05:53:05;-6.40;99.90
10089;DHT22;51898;49.864;8.550;2022-12-13T05:56:09;-6.40;99.90
10089;DHT22;51898;49.864;8.550;2022-12-13T05:59:11;-6.50;99.90
10089;DHT22;51898;49.864;8.550;2022-12-13T06:02:14;-6.40;99.90
10089;DHT22;51898;49.864;8.550;2022-12-13T06:05:22;-6.50;99.90
10089;DHT22;51898;49.864;8.550;2022-12-13T06:08:23;-6.50;99.90
10089;DHT22;51898;49.864;8.550;2022-12-13T06:11:26;-6.50;99.90
10089;DHT22;51898;49.864;8.550;2022-12-13T06:14:32;-6.50;99.90
10089;DHT22;51898;49.864;8.550;2022-12-13T06:17:35;-6.50;99.90
10089;DHT22;51898;49.864;8.550;2022-12-13T06:20:37;-6.50;99.90
10089;DHT22;51898;49.864;8.550;2022-12-13T06:23:39;-6.50;99.90
10089;DHT22;51898;49.864;8.550;2022-12-13T06:26:41;-6.60;99.90
10089;DHT22;51898;49.864;8.550;2022-12-13T06:29:46;-6.60;99.90
10089;DHT22;51898;49.864;8.550;2022-12-13T06:32:50;-6.60;99.90
10089;DHT22;51898;49.864;8.550;2022-12-13T06:35:55;-6.60;99.90
10089;DHT22;51898;49.864;8.550;2022-12-13T06:39:02;-6.60;99.90
10089;DHT22;51898;49.864;8.550;2022-12-13T06:42:05;-6.70;99.90
10089;DHT22;51898;49.864;8.550;2022-12-13T06:45:07;-6.70;99.90
10089;DHT22;51898;49.864;8.550;2022-12-13T06:48:09;-6.70;99.90
10089;DHT22;51898;49.864;8.550;2022-12-13T06:51:17;-6.70;99.90
10089;DHT22;51898;49.864;8.550;2022-12-13T06:54:23;-6.70;99.90
10089;DHT22;51898;49.864;8.550;2022-12-13T06:57:25;-6.70;99.90
10089;DHT22;51898;49.864;8.550;2022-12-13T07:00:26;-6.70;99.90
10089;DHT22;51898;49.864;8.550;2022-12-13T07:03:37;-6.70;99.90
10089;DHT22;51898;49.864;8.550;2022-12-13T07:06:39;-6.70;99.90
10089;DHT22;51898;49.864;8.550;2022-12-13T07:09:41;-6.70;99.90
10089;DHT22;51898;49.864;8.550;2022-12-13T07:12:43;-6.70;99.90
10089;DHT22;51898;49.864;8.550;2022-12-13T07:15:45;-6.70;99.90
10089;DHT22;51898;49.864;8.550;2022-12-13T07:18:47;-6.70;99.90
10089;DHT22;51898;49.864;8.550;2022-12-13T07:21:48;-6.70;99.90
10089;DHT22;51898;49.864;8.550;2022-12-13T07:24:50;-6.60;99.90
10089;DHT22;51898;49.864;8.550;2022-12-13T07:27:59;-6.70;99.90
10089;DHT22;51898;49.864;8.550;2022-12-13T07:31:05;-6.70;99.90
10089;DHT22;51898;49.864;8.550;2022-12-13T07:34:07;-6.70;99.90
10089;DHT22;51898;49.864;8.550;2022-12-13T07:37:15;-6.70;99.90
10089;DHT22;51898;49.864;8.550;2022-12-13T07:40:35;-6.60;99.90
10089;DHT22;51898;49.864;8.550;2022-12-13T07:43:37;-6.60;99.90
10089;DHT22;51898;49.864;8.550;2022-12-13T07:46:39;-6.60;99.90
10089;DHT22;51898;49.864;8.550;2022-12-13T07:49:41;-6.60;99.90
10089;DHT22;51898;49.864;8.550;2022-12-13T07:52:43;-6.50;99.90
10089;DHT22;51898;49.864;8.550;2022-12-13T07:55:44;-6.50;99.90
10089;DHT22;51898;49.864;8.550;2022-12-13T07:58:46;-6.50;99.90
10089;DHT22;51898;49.864;8.550;2022-12-13T08:01:51;-6.40;99.90
10089;DHT22;51898;49.864;8.550;2022-12-13T08:04:56;-6.40;99.90
10089;DHT22;51898;49.864;8.550;2022-12-13T08:08:18;-6.40;99.90
10089;DHT22;51898;49.864;8.550;2022-12-13T08:11:20;-6.40;99.90
10089;DHT22;51898;49.864;8.550;2022-12-13T08:14:22;-6.30;99.90
10089;DHT22;51898;49.864;8.550;2022-12-13T08:17:23;-6.30;99.90
10089;DHT22;51898;49.864;8.550;2022-12-13T08:20:25;-6.30;99.90
10089;DHT22;51898;49.864;8.550;2022-12-13T08:23:29;-6.30;99.90
10089;DHT22;51898;49.864;8.550;2022-12-13T08:26:31;-6.20;99.90
10089;DHT22;51898;49.864;8.550;2022-12-13T08:29:34;-6.10;99.90
10089;DHT22;51898;49.864;8.550;2022-12-13T08:32:36;-6.10;99.90
10089;DHT22;51898;49.864;8.550;2022-12-13T08:35:38;-6.10;99.90
10089;DHT22;51898;49.864;8.550;2022-12-13T08:38:42;-6.00;99.90
10089;DHT22;51898;49.864;8.550;2022-12-13T08:41:44;-6.00;99.90
10089;DHT22;51898;49.864;8.550;2022-12-13T08:44:47;-5.90;99.90
10089;DHT22;51898;49.864;8.550;2022-12-13T08:47:49;-5.80;99.90
10089;DHT22;51898;49.864;8.550;2022-12-13T08:50:50;-5.80;99.90
10089;DHT22;51898;49.864;8.550;2022-12-13T08:53:52;-5.70;99.90
10089;DHT22;51898;49.864;8.550;2022-12-13T08:57:11;-5.70;99.90
10089;DHT22;51898;49.864;8.550;2022-12-13T09:00:15;-5.70;99.90
10089;DHT22;51898;49.864;8.550;2022-12-13T09:03:17;-5.60;99.90
10089;DHT22;51898;49.864;8.550;2022-12-13T09:06:20;-5.50;99.90
10089;DHT22;51898;49.864;8.550;2022-12-13T09:09:21;-5.30;99.90
10089;DHT22;51898;49.864;8.550;2022-12-13T09:12:23;-5.10;99.90
10089;DHT22;51898;49.864;8.550;2022-12-13T09:15:31;-4.90;99.90
10089;DHT22;51898;49.864;8.550;2022-12-13T09:18:35;-4.70;99.90
10089;DHT22;51898;49.864;8.550;2022-12-13T09:21:37;-4.50;99.90
10089;DHT22;51898;49.864;8.550;2022-12-13T09:24:43;-4.50;99.90
10089;DHT22;51898;49.864;8.550;2022-12-13T09:27:50;-4.30;99.90
10089;DHT22;51898;49.864;8.550;2022-12-13T09:30:52;-4.30;99.90
10089;DHT22;51898;49.864;8.550;2022-12-13T09:33:53;-4.30;99.90
10089;DHT22;51898;49.864;8.550;2022-12-13T09:36:56;-4.30;99.90
10089;DHT22;51898;49.864;8.550;2022-12-13T09:40:02;-4.20;99.90
10089;DHT22;51898;49.864;8.550;2022-12-13T09:43:31;-4.20;99.90
10089;DHT22;51898;49.864;8.550;2022-12-13T09:46:45;-4.20;99.90
10089;DHT22;51898;49.864;8.550;2022-12-13T09:49:47;-4.10;99.90
10089;DHT22;51898;49.864;8.550;2022-12-13T09:52:54;-4.00;99.90
10089;DHT22;51898;49.864;8.550;2022-12-13T09:56:01;-3.90;99.90
10089;DHT22;51898;49.864;8.550;2022-12-13T09:59:13;-3.80;99.90
10089;DHT22;51898;49.864;8.550;2022-12-13T10:02:20;-3.70;99.90
10089;DHT22;51898;49.864;8.550;2022-12-13T10:05:33;-3.70;99.90
10089;DHT22;51898;49.864;8.550;2022-12-13T10:08:52;-3.60;99.90
10089;DHT22;51898;49.864;8.550;2022-12-13T10:11:59;-3.50;99.90
10089;DHT22;51898;49.864;8.550;2022-12-13T10:15:02;-3.50;99.90
10089;DHT22;51898;49.864;8.550;2022-12-13T10:18:06;-3.40;99.90
10089;DHT22;51898;49.864;8.550;2022-12-13T10:21:28;-3.30;99.90
10089;DHT22;51898;49.864;8.550;2022-12-13T10:24:53;-3.20;99.90
10089;DHT22;51898;49.864;8.550;2022-12-13T10:27:56;-3.10;99.90
10089;DHT22;51898;49.864;8.550;2022-12-13T10:30:58;-3.00;99.90
10089;DHT22;51898;49.864;8.550;2022-12-13T10:34:01;-3.00;99.90
10089;DHT22;51898;49.864;8.550;2022-12-13T10:37:32;-2.90;99.90
10089;DHT22;51898;49.864;8.550;2022-12-13T10:40:36;-2.90;99.90
10089;DHT22;51898;49.864;8.550;2022-12-13T10:43:38;-2.80;99.90
10089;DHT22;51898;49.864;8.550;2022-12-13T10:46:46;-2.70;99.90
10089;DHT22;51898;49.864;8.550;2022-12-13T10:49:51;-2.60;99.90
10089;DHT22;51898;49.864;8.550;2022-12-13T10:53:00;-2.50;99.90
10089;DHT22;51898;49.864;8.550;2022-12-13T10:56:02;-2.50;99.90
10089;DHT22;51898;49.864;8.550;2022-12-13T10:59:10;-2.40;99.90
10089;DHT22;51898;49.864;8.550;2022-12-13T11:02:28;-2.30;99.90
10089;DHT22;51898;49.864;8.550;2022-12-13T11:05:32;-2.20;99.90
10089;DHT22;51898;49.864;8.550;2022-12-13T11:08:35;-2.00;99.90
10089;DHT22;51898;49.864;8.550;2022-12-13T11:11:36;-1.90;99.90
10089;DHT22;51898;49.864;8.550;2022-12-13T11:14:58;-2.00;99.90
10089;DHT22;51898;49.864;8.550;2022-12-13T11:18:04;-2.00;99.90
10089;DHT22;51898;49.864;8.550;2022-12-13T11:21:09;-1.90;99.90
10089;DHT22;51898;49.864;8.550;2022-12-13T11:24:19;-1.80;99.90
10089;DHT22;51898;49.864;8.550;2022-12-13T11:42:04;-1.50;99.90
10089;DHT22;51898;49.864;8.550;2022-12-13T11:45:57;-1.40;99.90
10089;DHT22;51898;49.864;8.550;2022-12-13T16:01:48;-2.00;99.90
10089;DHT22;51898;49.864;8.550;2022-12-13T16:05:08;-2.10;99.90
10089;DHT22;51898;49.864;8.550;2022-12-13T16:08:47;-2.10;99.90
10089;DHT22;51898;49.864;8.550;2022-12-13T16:11:53;-2.10;99.90
10089;DHT22;51898;49.864;8.550;2022-12-13T16:15:13;-2.10;99.90
10089;DHT22;51898;49.864;8.550;2022-12-13T16:18:32;-2.10;99.90
10089;DHT22;51898;49.864;8.550;2022-12-13T16:21:34;-2.10;99.90
10089;DHT22;51898;49.864;8.550;2022-12-13T16:24:35;-2.10;99.90
10089;DHT22;51898;49.864;8.550;2022-12-13T16:27:37;-2.10;99.90
10089;DHT22;51898;49.864;8.550;2022-12-13T16:33:54;-2.10;99.90
10089;DHT22;51898;49.864;8.550;2022-12-13T16:36:56;-2.10;99.90
10089;DHT22;51898;49.864;8.550;2022-12-13T16:40:14;-2.20;99.90
10089;DHT22;51898;49.864;8.550;2022-12-13T16:43:24;-2.30;99.90
10089;DHT22;51898;49.864;8.550;2022-12-13T16:46:38;-2.30;99.90
10089;DHT22;51898;49.864;8.550;2022-12-13T16:50:02;-2.40;99.90
10089;DHT22;51898;49.864;8.550;2022-12-13T16:53:07;-2.40;99.90
10089;DHT22;51898;49.864;8.550;2022-12-13T16:56:12;-2.40;99.90
10089;DHT22;51898;49.864;8.550;2022-12-13T16:59:18;-2.40;99.90
10089;DHT22;51898;49.864;8.550;2022-12-13T17:02:20;-2.50;99.90
10089;DHT22;51898;49.864;8.550;2022-12-13T17:05:23;-2.50;99.90
10089;DHT22;51898;49.864;8.550;2022-12-13T17:08:25;-2.50;99.90
10089;DHT22;51898;49.864;8.550;2022-12-13T17:11:26;-2.50;99.90
10089;DHT22;51898;49.864;8.550;2022-12-13T17:14:28;-2.60;99.90
10089;DHT22;51898;49.864;8.550;2022-12-13T17:17:30;-2.60;99.90
10089;DHT22;51898;49.864;8.550;2022-12-13T17:20:32;-2.70;99.90
10089;DHT22;51898;49.864;8.550;2022-12-13T17:23:33;-2.70;99.90
10089;DHT22;51898;49.864;8.550;2022-12-13T17:26:35;-2.70;99.90
10089;DHT22;51898;49.864;8.550;2022-12-13T17:29:36;-2.70;99.90
10089;DHT22;51898;49.864;8.550;2022-12-13T17:32:38;-2.70;99.90
10089;DHT22;51898;49.864;8.550;2022-12-13T17:35:40;-2.70;99.90
10089;DHT22;51898;49.864;8.550;2022-12-13T17:38:43;-2.60;99.90
10089;DHT22;51898;49.864;8.550;2022-12-13T17:41:46;-2.60;99.90
10089;DHT22;51898;49.864;8.550;2022-12-13T17:44:56;-2.70;99.90
10089;DHT22;51898;49.864;8.550;2022-12-13T17:47:57;-2.70;99.90
10089;DHT22;51898;49.864;8.550;2022-12-13T17:50:59;-2.70;99.90
10089;DHT22;51898;49.864;8.550;2022-12-13T17:54:01;-2.80;99.90
10089;DHT22;51898;49.864;8.550;2022-12-13T17:57:02;-2.80;99.90
10089;DHT22;51898;49.864;8.550;2022-12-13T18:00:05;-2.80;99.90
10089;DHT22;51898;49.864;8.550;2022-12-13T18:03:06;-2.80;99.90
10089;DHT22;51898;49.864;8.550;2022-12-13T18:06:08;-2.90;99.90
10089;DHT22;51898;49.864;8.550;2022-12-13T18:09:11;-2.90;99.90
10089;DHT22;51898;49.864;8.550;2022-12-13T18:12:13;-2.90;99.90
10089;DHT22;51898;49.864;8.550;2022-12-13T18:15:15;-2.90;99.90
10089;DHT22;51898;49.864;8.550;2022-12-13T18:18:18;-2.90;99.90
10089;DHT22;51898;49.864;8.550;2022-12-13T18:21:24;-3.00;99.90
10089;DHT22;51898;49.864;8.550;2022-12-13T18:24:26;-3.00;99.90
10089;DHT22;51898;49.864;8.550;2022-12-13T18:27:28;-2.90;99.90
10089;DHT22;51898;49.864;8.550;2022-12-13T18:30:30;-3.00;99.90
10089;DHT22;51898;49.864;8.550;2022-12-13T18:33:32;-3.00;99.90
10089;DHT22;51898;49.864;8.550;2022-12-13T18:36:34;-3.00;99.90
10089;DHT22;51898;49.864;8.550;2022-12-13T18:39:35;-3.00;99.90
10089;DHT22;51898;49.864;8.550;2022-12-13T18:42:37;-3.00;99.90
10089;DHT22;51898;49.864;8.550;2022-12-13T18:45:39;-2.90;99.90
10089;DHT22;51898;49.864;8.550;2022-12-13T18:48:40;-2.90;99.90
10089;DHT22;51898;49.864;8.550;2022-12-13T18:51:42;-2.90;99.90
10089;DHT22;51898;49.864;8.550;2022-12-13T18:54:44;-2.80;99.90
10089;DHT22;51898;49.864;8.550;2022-12-13T18:57:55;-2.80;99.90
10089;DHT22;51898;49.864;8.550;2022-12-13T19:00:57;-2.80;99.90
10089;DHT22;51898;49.864;8.550;2022-12-13T19:03:58;-2.80;99.90
10089;DHT22;51898;49.864;8.550;2022-12-13T19:07:00;-2.80;99.90
10089;DHT22;51898;49.864;8.550;2022-12-13T19:10:02;-2.90;99.90
10089;DHT22;51898;49.864;8.550;2022-12-13T19:13:03;-2.80;99.90
10089;DHT22;51898;49.864;8.550;2022-12-13T19:16:09;-2.90;99.90
10089;DHT22;51898;49.864;8.550;2022-12-13T19:19:11;-2.90;99.90
10089;DHT22;51898;49.864;8.550;2022-12-13T19:22:12;-2.90;99.90
10089;DHT22;51898;49.864;8.550;2022-12-13T19:25:15;-2.90;99.90
10089;DHT22;51898;49.864;8.550;2022-12-13T19:28:17;-2.90;99.90
10089;DHT22;51898;49.864;8.550;2022-12-13T19:31:19;-2.80;99.90
10089;DHT22;51898;49.864;8.550;2022-12-13T19:34:27;-2.80;99.90
10089;DHT22;51898;49.864;8.550;2022-12-13T19:37:29;-2.80;99.90
10089;DHT22;51898;49.864;8.550;2022-12-13T19:40:30;-2.80;99.90
10089;DHT22;51898;49.864;8.550;2022-12-13T19:43:32;-2.80;99.90
10089;DHT22;51898;49.864;8.550;2022-12-13T19:46:34;-2.90;99.90
10089;DHT22;51898;49.864;8.550;2022-12-13T19:49:35;-2.90;99.90
10089;DHT22;51898;49.864;8.550;2022-12-13T19:52:37;-2.80;99.90
10089;DHT22;51898;49.864;8.550;2022-12-13T19:55:43;-2.90;99.90
10089;DHT22;51898;49.864;8.550;2022-12-13T19:58:49;-2.90;99.90
10089;DHT22;51898;49.864;8.550;2022-12-13T20:01:50;-3.00;99.90
10089;DHT22;51898;49.864;8.550;2022-12-13T20:04:52;-3.00;99.90
10089;DHT22;51898;49.864;8.550;2022-12-13T20:07:54;-3.00;99.90
10089;DHT22;51898;49.864;8.550;2022-12-13T20:11:04;-3.10;99.90
10089;DHT22;51898;49.864;8.550;2022-12-13T20:14:06;-3.10;99.90
10089;DHT22;51898;49.864;8.550;2022-12-13T20:17:08;-3.10;99.90
10089;DHT22;51898;49.864;8.550;2022-12-13T20:20:10;-3.20;99.90
10089;DHT22;51898;49.864;8.550;2022-12-13T20:23:12;-3.10;99.90
10089;DHT22;51898;49.864;8.550;2022-12-13T20:26:14;-3.10;99.90
10089;DHT22;51898;49.864;8.550;2022-12-13T20:29:16;-3.10;99.90
10089;DHT22;51898;49.864;8.550;2022-12-13T20:32:18;-3.00;99.90
10089;DHT22;51898;49.864;8.550;2022-12-13T20:35:21;-3.00;99.90
10089;DHT22;51898;49.864;8.550;2022-12-13T20:38:24;-3.00;99.90
10089;DHT22;51898;49.864;8.550;2022-12-13T20:41:27;-3.00;99.90
10089;DHT22;51898;49.864;8.550;2022-12-13T20:44:29;-3.00;99.90
10089;DHT22;51898;49.864;8.550;2022-12-13T20:47:31;-2.90;99.90
10089;DHT22;51898;49.864;8.550;2022-12-13T20:50:38;-2.90;99.90
10089;DHT22;51898;49.864;8.550;2022-12-13T20:53:41;-2.90;99.90
10089;DHT22;51898;49.864;8.550;2022-12-13T20:56:43;-2.90;99.90
10089;DHT22;51898;49.864;8.550;2022-12-13T20:59:45;-2.80;99.90
10089;DHT22;51898;49.864;8.550;2022-12-13T21:02:47;-2.80;99.90
10089;DHT22;51898;49.864;8.550;2022-12-13T21:05:49;-2.80;99.90
10089;DHT22;51898;49.864;8.550;2022-12-13T21:08:50;-2.80;99.90
10089;DHT22;51898;49.864;8.550;2022-12-13T21:11:52;-2.80;99.90
10089;DHT22;51898;49.864;8.550;2022-12-13T21:14:54;-2.80;99.90
10089;DHT22;51898;49.864;8.550;2022-12-13T21:17:56;-2.90;99.90
10089;DHT22;51898;49.864;8.550;2022-12-13T21:20:57;-2.80;99.90
10089;DHT22;51898;49.864;8.550;2022-12-13T21:23:59;-2.80;99.90
10089;DHT22;51898;49.864;8.550;2022-12-13T21:27:01;-2.80;99.90
10089;DHT22;51898;49.864;8.550;2022-12-13T21:30:03;-2.80;99.90
10089;DHT22;51898;49.864;8.550;2022-12-13T21:33:05;-2.80;99.90
10089;DHT22;51898;49.864;8.550;2022-12-13T21:36:15;-2.80;99.90
10089;DHT22;51898;49.864;8.550;2022-12-13T21:42:19;-2.80;99.90
10089;DHT22;51898;49.864;8.550;2022-12-13T21:45:21;-2.70;99.90
10089;DHT22;51898;49.864;8.550;2022-12-13T21:48:23;-2.80;99.90
10089;DHT22;51898;49.864;8.550;2022-12-13T21:51:27;-2.70;99.90
10089;DHT22;51898;49.864;8.550;2022-12-13T21:54:31;-2.70;99.90
10089;DHT22;51898;49.864;8.550;2022-12-13T21:57:32;-2.70;99.90
10089;DHT22;51898;49.864;8.550;2022-12-13T22:00:52;-2.70;99.90
10089;DHT22;51898;49.864;8.550;2022-12-13T22:03:54;-2.70;99.90
10089;DHT22;51898;49.864;8.550;2022-12-13T22:06:56;-2.70;99.90
10089;DHT22;51898;49.864;8.550;2022-12-13T22:09:59;-2.60;99.90
10089;DHT22;51898;49.864;8.550;2022-12-13T22:13:01;-2.60;99.90
10089;DHT22;51898;49.864;8.550;2022-12-13T22:16:03;-2.60;99.90
10089;DHT22;51898;49.864;8.550;2022-12-13T22:19:05;-2.50;99.90
10089;DHT22;51898;49.864;8.550;2022-12-13T22:22:06;-2.50;99.90
10089;DHT22;51898;49.864;8.550;2022-12-13T22:25:11;-2.50;99.90
10089;DHT22;51898;49.864;8.550;2022-12-13T22:28:12;-2.40;99.90
10089;DHT22;51898;49.864;8.550;2022-12-13T22:31:16;-2.40;99.90
10089;DHT22;51898;49.864;8.550;2022-12-13T22:34:18;-2.40;99.90
10089;DHT22;51898;49.864;8.550;2022-12-13T22:37:19;-2.40;99.90
10089;DHT22;51898;49.864;8.550;2022-12-13T22:40:21;-2.30;99.90
10089;DHT22;51898;49.864;8.550;2022-12-13T22:43:23;-2.40;99.90
10089;DHT22;51898;49.864;8.550;2022-12-13T22:46:24;-2.40;99.90
10089;DHT22;51898;49.864;8.550;2022-12-13T22:49:27;-2.40;99.90
10089;DHT22;51898;49.864;8.550;2022-12-13T22:52:28;-2.40;99.90
10089;DHT22;51898;49.864;8.550;2022-12-13T22:55:35;-2.40;99.90
10089;DHT22;51898;49.864;8.550;2022-12-13T22:58:38;-2.30;99.90
10089;DHT22;51898;49.864;8.550;2022-12-13T23:01:40;-2.30;99.90
10089;DHT22;51898;49.864;8.550;2022-12-13T23:04:47;-2.30;99.90
10089;DHT22;51898;49.864;8.550;2022-12-13T23:07:49;-2.30;99.90
10089;DHT22;51898;49.864;8.550;2022-12-13T23:10:50;-2.30;99.90
10089;DHT22;51898;49.864;8.550;2022-12-13T23:14:13;-2.30;99.90
10089;DHT22;51898;49.864;8.550;2022-12-13T23:17:15;-2.30;99.90
10089;DHT22;51898;49.864;8.550;2022-12-13T23:20:16;-2.20;99.90
10089;DHT22;51898;49.864;8.550;2022-12-13T23:23:18;-2.20;99.90
10089;DHT22;51898;49.864;8.550;2022-12-13T23:26:22;-2.20;99.90
10089;DHT22;51898;49.864;8.550;2022-12-13T23:29:24;-2.20;99.90
10089;DHT22;51898;49.864;8.550;2022-12-13T23:32:25;-2.10;99.90
10089;DHT22;51898;49.864;8.550;2022-12-13T23:35:27;-2.10;99.90
10089;DHT22;51898;49.864;8.550;2022-12-13T23:38:30;-2.00;99.90
10089;DHT22;51898;49.864;8.550;2022-12-13T23:41:32;-2.10;99.90
10089;DHT22;51898;49.864;8.550;2022-12-13T23:44:34;-2.10;99.90
10089;DHT22;51898;49.864;8.550;2022-12-13T23:47:36;-2.10;99.90
10089;DHT22;51898;49.864;8.550;2022-12-13T23:50:38;-2.10;99.90
10089;DHT22;51898;49.864;8.550;2022-12-13T23:53:40;-2.10;99.90
10089;DHT22;51898;49.864;8.550;2022-12-13T23:56:41;-2.10;99.90
10089;DHT22;51898;49.864;8.550;2022-12-13T23:59:43;-2.10;99.90
